Time;durP1;ratioP1;P1;durP2;ratioP2;P2;SDS_P1;SDS_P2;PMS_P1;PMS_P2;Temp;Humidity;BMP_temperature;BMP_pressure;BME280_temperature;BME280_humidity;BME280_pressure;Samples;Min_cycle;Max_cycle;Signal;HPM_P1;HPM_P2
2023/07/18 00:00:45;;;;;;;;;;;;;;;20.46;41.08;101075.82;105064;1289;67422;-87
2023/07/18 00:04:11;;;;;;;;;;;;;;;20.41;41.26;101070.83;104951;1289;71207;-87
2023/07/18 00:07:37;;;;;;;;;;;;;;;20.33;41.48;101079.41;105114;1287;61176;-87
2023/07/18 00:11:04;;;;;;;;;;;;;;;20.29;41.70;101069.30;105092;1288;60109;-87
2023/07/18 00:14:31;;;;;;;;;;;;;;;20.27;41.82;101073.77;105125;1289;75999;-87
2023/07/18 00:17:56;;;;;;;;;;;;;;;20.22;41.93;101083.48;105301;1289;69396;-87
2023/07/18 00:21:22;;;;;;;;;;;;;;;20.17;42.22;101089.34;105255;1285;71557;-87
2023/07/18 00:24:48;;;;;;;;;;;;;;;20.16;42.28;101088.52;105159;1286;60902;-87
2023/07/18 00:28:16;;;;;;;;;;;;;;;20.19;42.36;101083.48;105310;1290;60810;-87
2023/07/18 00:31:41;;;;;;;;;;;;;;;20.21;42.53;101077.29;105163;1286;73668;-86
2023/07/18 00:35:07;;;;;;;;;;;;;;;20.23;42.61;101085.05;105199;1286;69930;-87
2023/07/18 00:38:32;;;;;;;;;;;;;;;20.20;42.84;101089.39;104966;1289;71257;-86
2023/07/18 00:42:00;;;;;;;;;;;;;;;20.21;42.96;101086.88;105069;1289;61352;-87
2023/07/18 00:45:24;;;;;;;;;;;;;;;20.16;42.90;101083.63;105016;1289;61507;-86
2023/07/18 00:48:50;;;;;;;;;;;;;;;20.14;43.13;101081.62;105016;1291;75965;-86
2023/07/18 00:52:17;;;;;;;;;;;;;;;20.11;43.17;101084.20;104992;1289;67404;-87
2023/07/18 00:55:43;;;;;;;;;;;;;;;20.08;43.18;101082.41;104904;1292;71396;-87
2023/07/18 00:59:09;;;;;;;;;;;;;;;20.00;43.47;101082.82;104829;1290;61204;-86
2023/07/18 01:02:34;;;;;;;;;;;;;;;19.92;43.58;101089.51;104931;1292;59171;-87
2023/07/18 01:06:00;;;;;;;;;;;;;;;19.85;43.53;101091.91;104909;1291;73442;-86
2023/07/18 01:09:27;;;;;;;;;;;;;;;19.79;43.59;101093.92;105071;1286;69994;-86
2023/07/18 01:12:52;;;;;;;;;;;;;;;19.74;43.80;101094.90;104798;1291;74066;-86
2023/07/18 01:16:32;;;;;;;;;;;;;;;19.66;43.80;101101.77;104818;1293;61084;-87
2023/07/18 01:19:58;;;;;;;;;;;;;;;19.56;43.83;101107.10;104331;1296;61193;-87
2023/07/18 01:23:25;;;;;;;;;;;;;;;19.50;43.92;101114.52;104346;1297;76061;-87
2023/07/18 01:26:52;;;;;;;;;;;;;;;19.41;44.12;101117.72;104370;1297;68789;-87
2023/07/18 01:30:17;;;;;;;;;;;;;;;19.36;44.19;101121.09;104305;1297;72589;-89
2023/07/18 01:33:43;;;;;;;;;;;;;;;19.34;44.23;101130.81;104361;1297;61378;-90
2023/07/18 01:37:09;;;;;;;;;;;;;;;19.26;44.25;101131.17;104385;1300;61324;-90
2023/07/18 01:40:35;;;;;;;;;;;;;;;19.17;44.32;101131.04;104355;1299;73553;-90
2023/07/18 01:44:02;;;;;;;;;;;;;;;19.07;44.38;101137.06;104389;1299;68754;-87
2023/07/18 01:47:29;;;;;;;;;;;;;;;18.99;44.42;101141.06;103845;1307;71306;-87
2023/07/18 01:50:55;;;;;;;;;;;;;;;18.91;44.63;101146.15;104006;1300;61277;-87
2023/07/18 01:54:22;;;;;;;;;;;;;;;18.85;44.75;101141.84;104087;1301;61179;-88
2023/07/18 01:57:48;;;;;;;;;;;;;;;18.81;44.82;101140.94;104491;1298;72830;-88
2023/07/18 02:01:14;;;;;;;;;;;;;;;18.77;44.94;101142.53;104476;1296;67705;-87
2023/07/18 02:04:40;;;;;;;;;;;;;;;18.70;44.90;101143.70;104304;1296;203382;-88
2023/07/18 02:10:41;;;;;;;;;;;;;;;18.57;45.02;101146.34;105490;1286;61102;-88
2023/07/18 02:14:07;;;;;;;;;;;;;;;18.54;45.06;101144.34;105407;1285;76050;-87
2023/07/18 02:17:34;;;;;;;;;;;;;;;18.47;45.15;101147.39;105328;1285;68660;-88
2023/07/18 02:21:00;;;;;;;;;;;;;;;18.40;45.13;101146.84;105354;1285;72536;-90
2023/07/18 02:24:27;;;;;;;;;;;;;;;18.27;45.09;101155.04;105258;1286;61286;-90
2023/07/18 02:27:53;;;;;;;;;;;;;;;18.21;45.17;101160.33;105353;1285;61545;-90
2023/07/18 02:31:18;;;;;;;;;;;;;;;18.18;45.20;101163.08;105261;1286;73252;-90
2023/07/18 02:34:45;;;;;;;;;;;;;;;18.12;45.33;101162.95;105310;1285;68621;-87
2023/07/18 02:38:10;;;;;;;;;;;;;;;18.08;45.35;101166.94;105316;1290;74128;-87
2023/07/18 02:41:37;;;;;;;;;;;;;;;18.07;45.37;101171.34;105303;1286;61181;-87
2023/07/18 02:45:02;;;;;;;;;;;;;;;18.07;45.44;101173.44;105300;1291;61132;-89
2023/07/18 02:48:28;;;;;;;;;;;;;;;18.00;45.45;101171.79;104980;1293;75103;-90
2023/07/18 02:51:55;;;;;;;;;;;;;;;17.95;45.51;101175.48;104997;1288;67220;-90
2023/07/18 02:55:20;;;;;;;;;;;;;;;17.90;45.58;101175.15;104880;1290;71272;-90
2023/07/18 02:58:47;;;;;;;;;;;;;;;17.84;45.54;101178.14;104879;1291;61487;-89
2023/07/18 03:02:12;;;;;;;;;;;;;;;17.81;45.60;101176.86;104909;1292;61135;-90
2023/07/18 03:05:38;;;;;;;;;;;;;;;17.76;45.63;101180.71;104893;1291;74730;-89
2023/07/18 03:09:05;;;;;;;;;;;;;;;17.70;45.69;101185.61;104933;1291;68018;-90
2023/07/18 03:12:30;;;;;;;;;;;;;;;17.67;45.73;101188.58;104847;1292;71349;-90
2023/07/18 03:15:56;;;;;;;;;;;;;;;17.67;45.77;101194.52;104874;1291;61372;-90
2023/07/18 03:19:27;;;;;;;;;;;;;;;17.65;45.75;101200.30;93718;1294;5004911;-90
2023/07/18 03:22:53;;;;;;;;;;;;;;;17.68;45.84;101202.81;104965;1289;73095;-87
2023/07/18 03:26:18;;;;;;;;;;;;;;;17.67;45.83;101210.69;104912;1291;67309;-87
2023/07/18 03:29:47;;;;;;;;;;;;;;;17.69;45.90;101206.08;104940;1293;74227;-87
2023/07/18 03:33:12;;;;;;;;;;;;;;;17.68;45.98;101210.83;104957;1292;61148;-87
2023/07/18 03:36:44;;;;;;;;;;;;;;;17.69;46.02;101212.89;105031;1289;61177;-87
2023/07/18 03:40:11;;;;;;;;;;;;;;;17.73;46.07;101217.27;104897;1290;76046;-87
2023/07/18 03:43:37;;;;;;;;;;;;;;;17.72;46.10;101222.88;104898;1289;67432;-87
2023/07/18 03:47:03;;;;;;;;;;;;;;;17.74;46.10;101227.16;104904;1289;71577;-90
2023/07/18 03:50:30;;;;;;;;;;;;;;;17.75;46.26;101231.50;104634;1293;61557;-90
2023/07/18 03:53:56;;;;;;;;;;;;;;;17.74;46.29;101233.45;104692;1294;61108;-87
2023/07/18 03:57:29;;;;;;;;;;;;;;;17.69;46.26;101238.52;104664;1292;76061;-87
2023/07/18 04:00:54;;;;;;;;;;;;;;;17.67;46.26;101235.45;104681;1294;69996;-87
2023/07/18 04:04:18;;;;;;;;;;;;;;;17.60;46.31;101238.33;104741;1291;71655;-87
2023/07/18 04:07:45;;;;;;;;;;;;;;;17.60;46.24;101238.83;104831;1292;61318;-87
2023/07/18 04:11:11;;;;;;;;;;;;;;;17.59;46.29;101240.80;104949;1292;61983;-89
2023/07/18 04:14:37;;;;;;;;;;;;;;;17.59;46.49;101239.58;105063;1288;75489;-87
2023/07/18 04:18:03;;;;;;;;;;;;;;;17.71;46.41;101242.80;104952;1290;67306;-88
2023/07/18 04:21:29;;;;;;;;;;;;;;;17.84;46.51;101246.69;104707;1291;71244;-87
2023/07/18 04:24:55;;;;;;;;;;;;;;;17.87;46.48;101244.67;104761;1291;61176;-87
2023/07/18 04:28:22;;;;;;;;;;;;;;;17.86;46.54;101245.56;104856;1288;61671;-87
2023/07/18 04:31:48;;;;;;;;;;;;;;;17.90;46.57;101252.77;104799;1290;73459;-86
2023/07/18 04:35:13;;;;;;;;;;;;;;;17.90;46.59;101259.41;104924;1289;67391;-90
2023/07/18 04:38:41;;;;;;;;;;;;;;;17.91;46.60;101259.36;104845;1294;74071;-89
2023/07/18 04:42:05;;;;;;;;;;;;;;;17.92;46.61;101257.73;104998;1291;59296;-90
2023/07/18 04:45:31;;;;;;;;;;;;;;;17.93;46.59;101261.74;104720;1294;61271;-90
2023/07/18 04:48:57;;;;;;;;;;;;;;;17.95;46.66;101263.59;104673;1291;73348;-89
2023/07/18 04:52:23;;;;;;;;;;;;;;;17.98;46.75;101270.09;104639;1291;67372;-90
2023/07/18 04:55:49;;;;;;;;;;;;;;;18.05;46.79;101273.67;104707;1292;72292;-89
2023/07/18 04:59:15;;;;;;;;;;;;;;;18.12;46.83;101277.08;104852;1293;62453;-89
2023/07/18 05:02:41;;;;;;;;;;;;;;;18.18;46.81;101277.91;105070;1288;61305;-87
2023/07/18 05:06:07;;;;;;;;;;;;;;;18.20;46.87;101282.89;105045;1289;77139;-87
2023/07/18 05:09:33;;;;;;;;;;;;;;;18.31;46.94;101285.95;105051;1290;67439;-87
2023/07/18 05:13:02;;;;;;;;;;;;;;;18.44;46.90;101291.05;104987;1289;71378;-87
2023/07/18 05:16:28;;;;;;;;;;;;;;;18.65;47.04;101287.80;104934;1294;61234;-87
2023/07/18 05:19:54;;;;;;;;;;;;;;;19.24;47.05;101289.61;105041;1289;59574;-87
2023/07/18 05:23:21;;;;;;;;;;;;;;;20.09;46.79;101282.42;105192;1289;73433;-87
2023/07/18 05:26:47;;;;;;;;;;;;;;;20.91;46.39;101282.64;105143;1291;69045;-87
2023/07/18 05:30:14;;;;;;;;;;;;;;;21.75;46.40;101289.98;105225;1287;71185;-87
2023/07/18 05:33:41;;;;;;;;;;;;;;;22.60;46.02;101290.70;104720;1291;61212;-87
2023/07/18 05:37:06;;;;;;;;;;;;;;;23.28;45.72;101298.79;105214;1291;61338;-88
2023/07/18 05:40:32;;;;;;;;;;;;;;;23.77;45.46;101298.14;105066;1291;72181;-87
2023/07/18 05:43:58;;;;;;;;;;;;;;;24.25;45.46;101294.82;104715;1292;66264;-88
2023/07/18 05:46:52;;;;;;;;;;;;;;;24.77;45.22;101295.93;105412;1285;72221;-88
2023/07/18 05:50:18;;;;;;;;;;;;;;;25.37;44.85;101301.11;105277;1288;61283;-88
2023/07/18 05:53:45;;;;;;;;;;;;;;;25.97;44.76;101307.23;105075;1289;276404;-88
2023/07/18 05:56:46;;;;;;;;;;;;;;;26.27;44.37;101306.38;105241;1285;74527;-89
2023/07/18 06:00:13;;;;;;;;;;;;;;;26.67;43.98;101308.23;105069;1287;67882;-88
2023/07/18 06:03:39;;;;;;;;;;;;;;;27.05;43.97;101310.59;104490;1292;72961;-88
2023/07/18 06:07:06;;;;;;;;;;;;;;;27.41;43.66;101309.70;104557;1293;61381;-89
2023/07/18 06:10:32;;;;;;;;;;;;;;;27.73;43.29;101317.16;104590;1293;61181;-88
2023/07/18 06:14:01;;;;;;;;;;;;;;;27.78;42.90;101311.82;104525;1292;73388;-88
2023/07/18 06:17:27;;;;;;;;;;;;;;;27.98;42.71;101316.46;104515;1293;69871;-87
2023/07/18 06:20:54;;;;;;;;;;;;;;;28.23;42.31;101317.82;104470;1293;72748;-88
2023/07/18 06:24:20;;;;;;;;;;;;;;;28.63;42.06;101314.81;104478;1294;61252;-87
2023/07/18 06:27:47;;;;;;;;;;;;;;;29.26;41.60;101319.59;104510;1292;61164;-87
2023/07/18 06:31:14;;;;;;;;;;;;;;;29.84;41.08;101324.20;104222;1297;74772;-87
2023/07/18 06:34:40;;;;;;;;;;;;;;;30.30;40.90;101322.34;104264;1296;68421;-87
2023/07/18 06:38:06;;;;;;;;;;;;;;;30.88;40.50;101324.30;103772;1303;71331;-87
2023/07/18 06:41:33;;;;;;;;;;;;;;;31.56;40.18;101326.50;104056;1299;61247;-87
2023/07/18 06:44:59;;;;;;;;;;;;;;;32.21;39.58;101328.77;104088;1299;62742;-87
2023/07/18 06:48:25;;;;;;;;;;;;;;;32.86;39.58;101329.17;103938;1296;73605;-87
2023/07/18 06:51:51;;;;;;;;;;;;;;;33.12;39.16;101329.98;103981;1299;68579;-89
2023/07/18 06:55:10;;;;;;;;;;;;;;;33.10;38.98;101327.77;103871;1302;73276;-85
2023/07/18 06:58:16;;;;;;;;;;;;;;;33.27;38.57;101324.52;103829;1299;61499;-86
2023/07/18 07:01:31;;;;;;;;;;;;;;;33.77;37.87;101322.79;103769;1299;61378;-85
2023/07/18 07:04:39;;;;;;;;;;;;;;;34.01;37.10;101323.81;100588;1299;5204130;-86
2023/07/18 07:08:08;;;;;;;;;;;;;;;34.69;36.66;101324.19;105588;1292;68200;-86
2023/07/18 07:11:30;;;;;;;;;;;;;;;35.76;36.20;101326.18;104872;1293;71699;-86
2023/07/18 07:14:54;;;;;;;;;;;;;;;36.60;35.39;101325.95;105048;1289;61261;-86
2023/07/18 07:17:41;;;;;;;;;;;;;;;37.33;35.22;101326.02;105615;1287;61303;-86
2023/07/18 07:20:30;;;;;;;;;;;;;;;38.14;34.83;101324.47;104540;1289;73642;-85
2023/07/18 07:23:16;;;;;;;;;;;;;;;38.46;34.32;101329.44;104537;1289;72196;-84
2023/07/18 07:26:02;;;;;;;;;;;;;;;38.01;34.41;101330.73;104673;1289;71424;-84
2023/07/18 07:28:49;;;;;;;;;;;;;;;38.06;34.19;101324.77;104538;1288;61262;-85
2023/07/18 07:31:37;;;;;;;;;;;;;;;38.33;33.53;101324.23;104727;1288;61134;-85
2023/07/18 07:34:23;;;;;;;;;;;;;;;37.98;32.92;101323.36;104632;1288;75048;-84
2023/07/18 07:37:10;;;;;;;;;;;;;;;36.84;33.03;101325.33;104622;1287;67663;-84
2023/07/18 07:39:56;;;;;;;;;;;;;;;36.52;32.84;101325.98;104689;1290;74054;-84
2023/07/18 07:42:43;;;;;;;;;;;;;;;36.35;32.03;101325.12;104556;1289;61530;-85
2023/07/18 07:45:29;;;;;;;;;;;;;;;35.55;32.09;101318.48;104520;1287;61308;-84
2023/07/18 07:48:16;;;;;;;;;;;;;;;34.84;31.87;101321.14;104661;1289;73437;-84
2023/07/18 07:51:03;;;;;;;;;;;;;;;34.94;31.75;101317.28;104626;1289;67406;-85
2023/07/18 07:53:49;;;;;;;;;;;;;;;36.25;30.98;101315.83;105367;1290;72219;-84
2023/07/18 07:56:35;;;;;;;;;;;;;;;37.62;30.31;101315.70;105250;1288;61050;-84
2023/07/18 07:59:22;;;;;;;;;;;;;;;39.03;29.68;101315.54;105283;1290;61244;-85
2023/07/18 08:02:08;;;;;;;;;;;;;;;40.26;29.44;101314.16;105209;1292;73281;-85
2023/07/18 08:04:54;;;;;;;;;;;;;;;41.20;28.82;101307.83;105173;1290;67109;-85
2023/07/18 08:07:41;;;;;;;;;;;;;;;41.84;28.40;101307.50;105354;1290;71166;-85
2023/07/18 08:10:27;;;;;;;;;;;;;;;42.67;28.49;101303.70;105236;1290;59347;-85
2023/07/18 08:13:16;;;;;;;;;;;;;;;43.64;28.28;101305.15;105355;1289;61271;-85
2023/07/18 08:16:05;;;;;;;;;;;;;;;43.66;28.01;101302.50;105329;1289;74112;-85
2023/07/18 08:18:51;;;;;;;;;;;;;;;42.86;27.77;101302.11;105371;1291;67155;-85
2023/07/18 08:21:37;;;;;;;;;;;;;;;42.93;27.51;101299.69;105352;1289;71260;-85
2023/07/18 08:24:23;;;;;;;;;;;;;;;43.95;27.33;101298.81;105201;1291;59338;-85
2023/07/18 08:27:09;;;;;;;;;;;;;;;45.15;26.86;101293.97;105256;1289;61153;-85
2023/07/18 08:29:56;;;;;;;;;;;;;;;46.07;26.40;101302.06;105241;1289;73315;-85
2023/07/18 08:32:42;;;;;;;;;;;;;;;46.58;26.04;101296.59;105405;1288;67193;-86
2023/07/18 08:35:28;;;;;;;;;;;;;;;47.08;25.70;101291.21;105335;1289;62570;-86
2023/07/18 08:38:14;;;;;;;;;;;;;;;47.08;25.00;101287.58;105321;1290;61150;-85
2023/07/18 08:41:01;;;;;;;;;;;;;;;45.88;24.55;101285.39;106208;1289;59184;-86
2023/07/18 08:43:48;;;;;;;;;;;;;;;45.40;24.52;101280.59;106247;1289;73385;-85
2023/07/18 08:46:34;;;;;;;;;;;;;;;45.70;24.06;101268.65;105427;1290;67704;-86
2023/07/18 08:49:27;;;;;;;;;;;;;;;46.08;23.77;101266.77;105309;1290;71940;-85
2023/07/18 08:52:13;;;;;;;;;;;;;;;45.79;23.00;101266.70;105193;1290;59562;-85
2023/07/18 08:55:00;;;;;;;;;;;;;;;45.46;22.74;101262.95;105381;1288;61041;-86
2023/07/18 08:57:47;;;;;;;;;;;;;;;45.74;22.71;101261.03;105248;1290;73969;-85
2023/07/18 09:00:33;;;;;;;;;;;;;;;46.17;22.57;101257.52;105313;1291;68496;-86
2023/07/18 09:03:19;;;;;;;;;;;;;;;45.48;22.00;101257.60;105348;1290;76407;-85
2023/07/18 09:06:17;;;;;;;;;;;;;;;42.76;22.17;101253.05;105337;1289;59313;-85
2023/07/18 09:09:13;;;;;;;;;;;;;;;40.28;22.55;101253.16;105215;1290;61930;-85
2023/07/18 09:12:00;;;;;;;;;;;;;;;38.35;22.43;101247.44;105337;1288;74561;-84
2023/07/18 09:14:46;;;;;;;;;;;;;;;36.78;22.12;101250.88;105312;1290;68767;-84
2023/07/18 09:17:34;;;;;;;;;;;;;;;35.31;22.28;101242.13;105281;1290;73859;-84
2023/07/18 09:20:21;;;;;;;;;;;;;;;34.01;22.19;101231.14;105306;1289;60397;-84
2023/07/18 09:23:07;;;;;;;;;;;;;;;33.05;22.33;101229.38;105246;1290;59945;-84
2023/07/18 09:25:54;;;;;;;;;;;;;;;32.08;22.13;101226.86;105296;1290;73664;-84
2023/07/18 09:28:41;;;;;;;;;;;;;;;31.21;22.04;101232.84;105329;1289;67232;-84
2023/07/18 09:39:51;;;;;;;;;;;;;;;28.89;22.43;101228.36;105378;1286;74763;-90
2023/07/18 09:43:25;;;;;;;;;;;;;;;28.37;22.61;101220.39;105312;1290;68577;-91
2023/07/18 09:46:53;;;;;;;;;;;;;;;27.94;22.92;101218.58;104672;1295;74344;-89
2023/07/18 09:52:32;;;;;;;;;;;;;;;27.48;23.12;101214.07;105414;1284;61080;-90
2023/07/18 10:14:14;;;;;;;;;;;;;;;26.64;24.31;101203.81;105682;1286;72284;-89
2023/07/18 10:17:51;;;;;;;;;;;;;;;26.67;24.34;101211.90;105217;1291;59284;-88
2023/07/18 10:21:17;;;;;;;;;;;;;;;26.67;24.41;101198.42;105300;1293;61387;-88
2023/07/18 10:24:44;;;;;;;;;;;;;;;26.63;24.72;101192.71;105139;1292;74509;-88
2023/07/18 10:28:10;;;;;;;;;;;;;;;26.48;24.85;101191.94;105250;1293;68138;-89
2023/07/18 10:33:41;;;;;;;;;;;;;;;26.59;24.92;101195.49;105782;1285;77024;-88
2023/07/18 10:37:16;;;;;;;;;;;;;;;26.61;25.25;101186.34;105747;1285;61263;-89
2023/07/18 10:40:57;;;;;;;;;;;;;;;26.75;25.33;101180.87;105487;1287;74436;-88
2023/07/18 10:44:23;;;;;;;;;;;;;;;26.71;25.44;101186.96;105030;1294;68184;-88
2023/07/18 10:47:52;;;;;;;;;;;;;;;26.66;25.50;101177.41;105046;1294;71393;-88
2023/07/18 10:51:18;;;;;;;;;;;;;;;26.61;25.61;101173.02;104534;1299;59056;-88
2023/07/18 10:54:45;;;;;;;;;;;;;;;26.58;25.87;101170.95;104553;1299;59946;-88
2023/07/18 11:01:47;;;;;;;;;;;;;;;26.61;26.03;101169.33;103399;1311;68301;-89
2023/07/18 11:15:45;;;;;;;;;;;;;;;26.54;26.49;101155.86;105640;1285;67269;-89
2023/07/18 11:31:51;;;;;;;;;;;;;;;26.62;26.82;101153.70;105655;1285;72445;-88
2023/07/18 11:35:18;;;;;;;;;;;;;;;26.58;27.02;101147.14;105168;1289;60974;-90
2023/07/18 11:38:14;;;;;;;;;;;;;;;26.69;27.18;101152.66;105808;1283;61157;-89
2023/07/18 11:41:32;;;;;;;;;;;;;;;26.87;27.17;101150.40;105623;1285;75468;-86
2023/07/18 11:44:28;;;;;;;;;;;;;;;26.98;27.11;101148.52;105612;1285;67126;-87
2023/07/18 11:47:15;;;;;;;;;;;;;;;27.02;27.19;101148.42;106447;1285;72420;-88
2023/07/18 11:50:11;;;;;;;;;;;;;;;26.94;27.06;101150.58;106443;1285;59198;-87
2023/07/18 11:52:58;;;;;;;;;;;;;;;26.74;27.23;101138.66;106428;1285;59254;-86
2023/07/18 11:55:44;;;;;;;;;;;;;;;26.64;27.26;101133.60;105422;1286;74515;-84
2023/07/18 11:58:30;;;;;;;;;;;;;;;26.62;27.40;101127.21;105532;1285;67261;-85
2023/07/18 12:01:16;;;;;;;;;;;;;;;26.66;27.36;101125.12;105378;1286;72705;-84
2023/07/18 12:04:11;;;;;;;;;;;;;;;26.67;27.45;101126.24;105496;1285;58715;-84
2023/07/18 12:06:57;;;;;;;;;;;;;;;26.72;27.46;101121.98;105536;1285;61118;-86
2023/07/18 12:09:59;;;;;;;;;;;;;;;26.76;27.51;101121.75;105381;1285;74021;-86
2023/07/18 12:13:05;;;;;;;;;;;;;;;26.78;27.65;101115.52;105424;1285;69933;-87
2023/07/18 12:16:31;;;;;;;;;;;;;;;26.78;27.68;101118.86;105539;1285;71169;-87
2023/07/18 12:19:57;;;;;;;;;;;;;;;26.75;27.68;101111.91;105475;1285;59920;-86
2023/07/18 12:23:11;;;;;;;;;;;;;;;26.79;27.78;101102.17;105582;1285;61167;-86
2023/07/18 12:26:06;;;;;;;;;;;;;;;26.81;27.77;101112.46;105561;1285;73346;-87
2023/07/18 12:29:15;;;;;;;;;;;;;;;26.71;27.76;101104.17;105508;1285;68899;-88
2023/07/18 12:32:05;;;;;;;;;;;;;;;26.62;27.84;101097.66;105529;1285;72252;-84
2023/07/18 12:34:53;;;;;;;;;;;;;;;26.63;28.06;101093.33;105384;1285;61609;-84
2023/07/18 12:37:39;;;;;;;;;;;;;;;26.66;28.04;101101.39;105459;1285;61119;-84
2023/07/18 12:40:25;;;;;;;;;;;;;;;26.65;28.04;101101.14;105521;1285;73416;-84
2023/07/18 12:43:11;;;;;;;;;;;;;;;26.57;28.03;101090.91;105377;1285;67431;-84
2023/07/18 12:45:57;;;;;;;;;;;;;;;26.49;28.11;101083.06;105406;1285;71237;-84
2023/07/18 12:48:43;;;;;;;;;;;;;;;26.46;28.16;101083.48;105385;1285;59642;-83
2023/07/18 12:51:29;;;;;;;;;;;;;;;26.48;28.14;101075.94;105481;1285;61282;-84
2023/07/18 12:54:15;;;;;;;;;;;;;;;26.49;28.18;101071.48;105409;1285;73215;-84
2023/07/18 12:57:01;;;;;;;;;;;;;;;26.52;28.25;101074.88;105383;1286;69912;-84
2023/07/18 12:59:47;;;;;;;;;;;;;;;26.51;28.17;101075.86;105331;1287;72245;-83
2023/07/18 13:02:33;;;;;;;;;;;;;;;26.42;28.18;101064.15;105381;1287;61254;-84
2023/07/18 13:05:19;;;;;;;;;;;;;;;26.32;28.33;101061.17;105301;1286;59363;-84
2023/07/18 13:08:05;;;;;;;;;;;;;;;26.29;28.33;101059.46;105269;1289;74928;-84
2023/07/18 13:10:51;;;;;;;;;;;;;;;26.29;28.39;101052.35;105322;1287;68411;-83
2023/07/18 13:13:37;;;;;;;;;;;;;;;26.25;28.45;101058.70;105354;1288;71338;-84
2023/07/18 13:16:23;;;;;;;;;;;;;;;26.18;28.45;101059.05;105316;1288;61164;-84
2023/07/18 13:19:09;;;;;;;;;;;;;;;26.14;28.46;101055.97;105336;1286;59662;-84
2023/07/18 13:21:55;;;;;;;;;;;;;;;26.17;28.60;101046.61;105366;1288;73415;-84
2023/07/18 13:24:42;;;;;;;;;;;;;;;26.21;28.59;101043.95;105406;1288;67201;-83
2023/07/18 13:27:28;;;;;;;;;;;;;;;26.20;28.51;101048.63;105419;1286;74030;-84
2023/07/18 13:30:14;;;;;;;;;;;;;;;26.20;28.56;101042.13;105292;1288;59229;-83
2023/07/18 13:33:00;;;;;;;;;;;;;;;26.21;28.59;101037.73;105402;1286;61274;-84
2023/07/18 13:35:46;;;;;;;;;;;;;;;26.24;28.59;101034.21;105279;1286;74457;-84
2023/07/18 13:38:32;;;;;;;;;;;;;;;26.27;28.58;101033.27;105350;1286;68509;-84
2023/07/18 13:41:18;;;;;;;;;;;;;;;26.28;28.63;101036.39;105322;1286;74073;-83
2023/07/18 13:44:04;;;;;;;;;;;;;;;26.29;28.71;101040.92;105332;1286;61633;-83
2023/07/18 13:46:51;;;;;;;;;;;;;;;26.28;28.70;101039.19;105477;1286;59373;-84
2023/07/18 13:49:37;;;;;;;;;;;;;;;26.23;28.77;101044.35;105225;1286;77457;-84
2023/07/18 13:52:23;;;;;;;;;;;;;;;26.24;28.77;101038.23;105371;1288;68297;-84
2023/07/18 13:55:09;;;;;;;;;;;;;;;26.22;28.77;101037.70;105414;1287;71477;-84
2023/07/18 13:57:55;;;;;;;;;;;;;;;26.19;28.83;101036.00;105649;1286;59444;-84
2023/07/18 14:00:41;;;;;;;;;;;;;;;26.20;28.89;101036.09;105670;1291;61211;-84
2023/07/18 14:03:27;;;;;;;;;;;;;;;26.20;28.97;101031.85;105650;1287;75659;-83
2023/07/18 14:06:13;;;;;;;;;;;;;;;26.23;28.98;101034.81;105606;1286;68444;-84
2023/07/18 14:08:59;;;;;;;;;;;;;;;26.27;29.12;101035.38;105705;1286;71447;-83
2023/07/18 14:11:47;;;;;;;;;;;;;;;26.28;28.99;101037.11;105550;1288;61158;-83
2023/07/18 14:14:33;;;;;;;;;;;;;;;26.27;29.04;101035.02;105535;1286;59982;-84
2023/07/18 14:17:19;;;;;;;;;;;;;;;26.22;28.97;101030.85;105771;1286;73226;-84
2023/07/18 14:20:06;;;;;;;;;;;;;;;26.19;29.03;101033.35;105566;1287;69934;-84
2023/07/18 14:22:52;;;;;;;;;;;;;;;26.16;29.14;101035.84;105729;1287;72525;-84
2023/07/18 14:25:38;;;;;;;;;;;;;;;26.20;29.19;101040.36;105546;1286;61276;-84
2023/07/18 14:28:24;;;;;;;;;;;;;;;26.25;29.10;101040.70;105571;1286;59512;-84
2023/07/18 14:31:10;;;;;;;;;;;;;;;26.25;29.12;101038.51;105440;1286;206861;-84
2023/07/18 14:33:56;;;;;;;;;;;;;;;26.25;29.15;101036.98;105085;1289;68299;-83
2023/07/18 14:36:43;;;;;;;;;;;;;;;26.23;29.07;101035.86;105550;1290;72168;-84
2023/07/18 14:39:29;;;;;;;;;;;;;;;26.21;29.14;101028.77;105775;1288;61115;-84
2023/07/18 14:42:15;;;;;;;;;;;;;;;26.21;29.13;101028.83;105758;1288;59952;-84
2023/07/18 14:45:01;;;;;;;;;;;;;;;26.20;29.27;101022.12;105613;1285;72919;-85
2023/07/18 14:47:47;;;;;;;;;;;;;;;26.18;29.27;101020.36;105671;1288;67224;-83
2023/07/18 14:50:33;;;;;;;;;;;;;;;26.11;29.24;101018.38;105549;1287;71201;-83
2023/07/18 14:53:21;;;;;;;;;;;;;;;26.05;29.36;101012.05;105573;1287;61063;-83
2023/07/18 14:56:06;;;;;;;;;;;;;;;26.08;29.37;101004.84;105643;1288;61278;-83
2023/07/18 14:58:52;;;;;;;;;;;;;;;26.13;29.42;100996.90;105637;1287;73186;-83
2023/07/18 15:01:38;;;;;;;;;;;;;;;26.17;29.36;100996.41;105464;1288;68066;-83
2023/07/18 15:04:25;;;;;;;;;;;;;;;26.14;29.44;100990.77;105140;1285;72940;-83
2023/07/18 15:07:11;;;;;;;;;;;;;;;26.05;29.41;100982.47;105552;1286;61206;-83
2023/07/18 15:09:58;;;;;;;;;;;;;;;25.90;29.50;100983.45;105612;1285;63153;-83
2023/07/18 15:12:46;;;;;;;;;;;;;;;25.79;29.60;100977.36;105520;1288;73156;-83
2023/07/18 15:15:35;;;;;;;;;;;;;;;25.78;29.56;100979.17;105501;1286;67490;-83
2023/07/18 15:18:21;;;;;;;;;;;;;;;25.79;29.60;100977.35;105569;1289;72031;-83
2023/07/18 15:21:08;;;;;;;;;;;;;;;25.78;29.69;100970.73;105554;1287;59680;-83
2023/07/18 15:23:54;;;;;;;;;;;;;;;25.76;29.66;100973.17;105602;1288;60853;-83
2023/07/18 15:26:40;;;;;;;;;;;;;;;25.71;29.68;100972.30;105524;1287;72666;-83
2023/07/18 15:29:26;;;;;;;;;;;;;;;25.67;29.70;100968.52;105318;1288;67778;-83
2023/07/18 15:32:13;;;;;;;;;;;;;;;25.64;29.85;100965.36;105462;1288;71194;-83
2023/07/18 15:35:00;;;;;;;;;;;;;;;25.65;29.84;100966.55;105592;1288;59550;-83
2023/07/18 15:37:46;;;;;;;;;;;;;;;25.66;29.84;100960.98;105533;1288;59839;-83
2023/07/18 15:40:32;;;;;;;;;;;;;;;25.71;29.90;100953.05;105461;1286;75848;-83
2023/07/18 15:43:18;;;;;;;;;;;;;;;25.76;29.92;100952.55;105321;1288;205887;-83
2023/07/18 15:46:04;;;;;;;;;;;;;;;25.75;29.83;100954.88;105407;1288;71715;-83
2023/07/18 15:48:50;;;;;;;;;;;;;;;25.69;29.84;100951.58;105426;1288;59228;-83
2023/07/18 15:51:36;;;;;;;;;;;;;;;25.62;29.81;100945.20;105484;1286;60074;-83
2023/07/18 15:54:23;;;;;;;;;;;;;;;25.55;29.91;100942.33;105376;1286;75052;-83
2023/07/18 15:57:09;;;;;;;;;;;;;;;25.54;30.00;100941.70;105569;1286;68025;-83
2023/07/18 15:59:55;;;;;;;;;;;;;;;25.58;30.07;100937.52;105432;1288;73031;-83
2023/07/18 16:02:41;;;;;;;;;;;;;;;25.59;30.07;100938.33;105413;1286;61097;-83
2023/07/18 16:05:28;;;;;;;;;;;;;;;25.58;29.95;100929.39;105569;1286;59740;-83
2023/07/18 16:08:17;;;;;;;;;;;;;;;25.60;30.03;100919.52;105542;1287;73745;-83
2023/07/18 16:11:03;;;;;;;;;;;;;;;25.64;29.91;100910.45;105587;1288;67332;-83
2023/07/18 16:13:49;;;;;;;;;;;;;;;25.64;30.02;100914.84;105595;1287;71727;-83
2023/07/18 16:16:36;;;;;;;;;;;;;;;25.62;30.04;100910.05;105550;1289;61136;-83
2023/07/18 16:19:23;;;;;;;;;;;;;;;25.59;30.04;100904.64;105609;1290;61122;-83
2023/07/18 16:22:09;;;;;;;;;;;;;;;25.55;29.99;100903.17;105618;1285;75075;-83
2023/07/18 16:24:55;;;;;;;;;;;;;;;25.52;30.00;100900.23;105421;1285;66251;-83
2023/07/18 16:27:41;;;;;;;;;;;;;;;25.46;29.98;100896.41;105194;1287;72376;-83
2023/07/18 16:30:27;;;;;;;;;;;;;;;25.37;29.97;100893.41;105414;1290;61018;-84
2023/07/18 16:33:13;;;;;;;;;;;;;;;25.30;29.99;100887.60;105535;1288;61218;-83
2023/07/18 16:35:59;;;;;;;;;;;;;;;25.21;30.02;100889.09;105435;1286;73786;-84
2023/07/18 16:38:47;;;;;;;;;;;;;;;25.14;30.08;100888.59;105439;1286;68941;-83
2023/07/18 16:41:36;;;;;;;;;;;;;;;25.11;30.13;100888.09;105408;1286;71758;-83